createdAt,value
2018-07-02T00:01:48.776Z,17.8
2018-07-02T00:06:46.318Z,17.7
2018-07-02T00:11:46.582Z,18
2018-07-02T00:16:43.905Z,17.6
2018-07-02T00:21:41.655Z,17.5
2018-07-02T00:26:38.834Z,17.3
2018-07-02T00:31:36.823Z,18
2018-07-02T00:36:34.685Z,17.5
2018-07-02T00:41:32.525Z,18
2018-07-02T00:46:29.922Z,17.5
2018-07-02T00:51:27.630Z,17.5
2018-07-02T00:56:25.558Z,17.4
2018-07-02T01:01:23.311Z,17.4
2018-07-02T01:06:20.777Z,18
2018-07-02T01:11:18.758Z,18
2018-07-02T01:16:16.397Z,17.4
2018-07-02T01:21:14.214Z,18
2018-07-02T01:26:12.667Z,17.4
2018-07-02T01:31:10.357Z,17.7
2018-07-02T01:36:08.080Z,17.4
2018-07-02T01:41:06.093Z,17.4
2018-07-02T01:46:04.016Z,17.4
2018-07-02T01:51:01.967Z,17.3
2018-07-02T01:55:59.609Z,17.9
2018-07-02T02:00:57.107Z,17.4
2018-07-02T02:05:54.882Z,17.3
2018-07-02T02:10:52.356Z,17.3
2018-07-02T02:15:49.922Z,17.2
2018-07-02T02:20:47.875Z,17.3
2018-07-02T02:25:45.637Z,17.3
2018-07-02T02:30:43.698Z,17.3
2018-07-02T02:35:41.526Z,17.3
2018-07-02T02:40:39.951Z,17.8
2018-07-02T02:45:37.850Z,17.2
2018-07-02T02:50:35.755Z,17.2
2018-07-02T02:55:33.562Z,17.2
2018-07-02T03:00:31.960Z,17.2
2018-07-02T03:05:29.883Z,17.1
2018-07-02T03:10:28.071Z,17.1
2018-07-02T03:15:25.911Z,17.7
2018-07-02T03:20:23.319Z,17.1
2018-07-02T03:25:21.430Z,17.1
2018-07-02T03:30:20.136Z,17
2018-07-02T03:35:18.005Z,17.5
2018-07-02T03:40:16.192Z,17
2018-07-02T03:45:14.304Z,17
2018-07-02T03:50:13.097Z,17
2018-07-02T03:55:11.619Z,17
2018-07-02T04:00:10.117Z,17.5
2018-07-02T04:05:08.126Z,17
2018-07-02T04:10:06.191Z,17.5
2018-07-02T04:15:04.412Z,17.5
2018-07-02T04:20:03.132Z,17
2018-07-02T04:25:00.842Z,17
2018-07-02T04:29:58.822Z,17.5
2018-07-02T04:34:56.373Z,17.5
2018-07-02T04:39:54.339Z,17
2018-07-02T04:44:52.577Z,17.5
2018-07-02T04:49:50.875Z,17
2018-07-02T04:54:49.191Z,17
2018-07-02T04:59:47.676Z,17
2018-07-02T05:04:45.632Z,17.1
2018-07-02T05:09:43.772Z,17.1
2018-07-02T05:14:42.067Z,17.1
2018-07-02T05:19:40.100Z,17.1
2018-07-02T05:24:38.049Z,17.2
2018-07-02T05:29:37.943Z,17.8
2018-07-02T05:34:34.906Z,17.8
2018-07-02T05:39:35.139Z,17.8
2018-07-02T05:44:32.132Z,17.3
2018-07-02T05:49:29.500Z,17.9
2018-07-02T05:54:30.166Z,18
2018-07-02T05:59:26.953Z,17.4
2018-07-02T06:04:24.465Z,17.5
2018-07-02T06:09:22.385Z,17.5
2018-07-02T06:14:20.070Z,17.6
2018-07-02T06:19:17.826Z,17.6
2018-07-02T06:24:15.671Z,18.2
2018-07-02T06:29:12.784Z,17.7
2018-07-02T06:34:10.579Z,17.7
2018-07-02T06:39:08.105Z,18.2
2018-07-02T06:44:06.027Z,18.2
2018-07-02T06:49:03.602Z,17.6
2018-07-02T06:54:01.256Z,17.7
2018-07-02T06:58:59.097Z,18.3
2018-07-02T07:03:56.506Z,18.3
2018-07-02T07:08:54.364Z,17.9
2018-07-02T07:13:52.510Z,17.9
2018-07-02T07:18:50.084Z,18.5
2018-07-02T07:23:47.712Z,18.5
2018-07-02T07:28:44.786Z,18.4
2018-07-02T07:33:42.052Z,18
2018-07-02T07:38:39.914Z,18.2
2018-07-02T07:43:37.516Z,18.5
2018-07-02T07:48:35.150Z,18.4
2018-07-02T07:53:32.802Z,18.9
2018-07-02T07:58:30.728Z,19
2018-07-02T08:03:28.811Z,19.1
2018-07-02T08:08:26.265Z,19.1
2018-07-02T08:13:24.001Z,19.2
2018-07-02T08:18:21.845Z,19.3
2018-07-02T08:23:19.794Z,19.4
2018-07-02T08:28:17.485Z,19.4
2018-07-02T08:33:15.535Z,19.5
2018-07-02T08:38:13.456Z,19.6
2018-07-02T08:43:11.534Z,19.6
2018-07-02T08:48:08.733Z,19.7
2018-07-02T08:53:07.063Z,19.2
2018-07-02T08:58:04.706Z,19.9
2018-07-02T09:03:02.434Z,20
2018-07-02T09:08:00.229Z,20.1
2018-07-02T09:12:58.183Z,20.2
2018-07-02T09:17:55.706Z,20.3
2018-07-02T09:22:53.903Z,20.4
2018-07-02T09:27:51.785Z,20.5
2018-07-02T09:32:49.495Z,20.8
2018-07-02T09:37:47.261Z,21
2018-07-02T09:42:45.186Z,21
2018-07-02T09:47:42.786Z,21.4
2018-07-02T09:52:40.782Z,21.6
2018-07-02T09:57:38.683Z,21.7
2018-07-02T10:02:36.460Z,21.9
2018-07-02T10:07:34.325Z,22
2018-07-02T10:12:32.174Z,22.1
2018-07-02T10:17:29.739Z,22.2
2018-07-02T10:22:27.996Z,22.3
2018-07-02T10:27:26.222Z,21.7
2018-07-02T10:32:23.796Z,22.5
2018-07-02T10:37:21.784Z,22.5
2018-07-02T10:42:20.007Z,22.1
2018-07-02T10:47:18.237Z,22.8
2018-07-02T10:52:16.275Z,22.4
2018-07-02T10:57:14.227Z,22.5
2018-07-02T11:02:12.268Z,23.1
2018-07-02T11:07:10.054Z,23.3
2018-07-02T11:12:07.953Z,23.5
2018-07-02T11:17:05.848Z,23.6
2018-07-02T11:22:03.791Z,23.8
2018-07-02T11:27:01.556Z,23.6
2018-07-02T11:31:59.790Z,24.2
2018-07-02T11:36:57.601Z,24.4
2018-07-02T11:41:55.371Z,24.6
2018-07-02T11:46:53.235Z,24.8
2018-07-02T11:51:51.186Z,25
2018-07-02T11:56:49.288Z,25.3
2018-07-02T12:01:47.232Z,25.5
2018-07-02T12:48:24.356Z,25.7
2018-07-02T12:53:22.170Z,25.5
2018-07-02T12:58:19.917Z,25.5
2018-07-02T13:03:17.755Z,25.8
2018-07-02T13:08:16.517Z,26.2
2018-07-02T13:13:14.847Z,26.7
2018-07-02T13:18:12.684Z,27.9
2018-07-02T14:41:20.473Z,27.3
2018-07-02T14:46:17.107Z,27.2
2018-07-02T14:51:14.967Z,27.2
2018-07-02T14:56:13.649Z,27.2
2018-07-02T15:01:11.805Z,27.3
2018-07-02T15:06:09.689Z,27.3
2018-07-02T15:11:08.286Z,27.3
2018-07-02T15:16:05.197Z,27.3
2018-07-02T15:21:02.781Z,27.4
2018-07-02T15:26:01.230Z,27.4
2018-07-02T15:30:59.486Z,27.4
2018-07-02T15:35:57.760Z,27.3
2018-07-02T15:40:56.468Z,27.1
2018-07-02T15:45:54.392Z,27
2018-07-02T15:50:52.208Z,26.9
2018-07-02T15:55:51.014Z,26.9
2018-07-02T16:00:49.785Z,26.2
2018-07-02T16:05:48.033Z,26.7
2018-07-02T16:10:46.101Z,26.9
2018-07-02T16:15:44.487Z,26.9
2018-07-02T16:20:42.372Z,26.8
2018-07-02T16:25:40.115Z,26.3
2018-07-02T16:30:38.079Z,26.8
2018-07-02T16:35:36.796Z,26.7
2018-07-02T16:40:35.168Z,26.2
2018-07-02T16:45:34.202Z,26
2018-07-02T16:50:31.666Z,26.6
2018-07-02T16:55:29.431Z,26.5
2018-07-02T17:00:27.478Z,25.9
2018-07-02T17:05:25.622Z,25.8
2018-07-02T17:10:23.180Z,26.2
2018-07-02T17:15:20.514Z,26.1
2018-07-02T17:20:18.575Z,26
2018-07-02T17:25:16.730Z,25.9
2018-07-02T17:30:14.400Z,25.8
2018-07-02T17:35:13.415Z,25.7
2018-07-02T17:40:12.075Z,25.6
2018-07-02T17:45:10.849Z,25.5
2018-07-02T17:50:09.318Z,25.4
2018-07-02T17:55:07.002Z,25.3
2018-07-02T18:00:04.874Z,25.2
2018-07-02T18:05:03.316Z,24.9
2018-07-02T18:10:01.015Z,25.1
2018-07-02T18:14:58.449Z,25
2018-07-02T18:19:56.281Z,24.9
2018-07-02T18:24:53.743Z,24.7
2018-07-02T18:29:51.407Z,24.7
2018-07-02T18:34:49.568Z,24.6
2018-07-02T18:39:47.511Z,24.6
2018-07-02T18:44:45.651Z,24.5
2018-07-02T18:49:43.271Z,24.4
2018-07-02T18:54:41.266Z,24.3
2018-07-02T18:59:39.080Z,23.7
2018-07-02T19:04:37.239Z,24.2
2018-07-02T19:09:35.057Z,24.1
2018-07-02T19:14:33.179Z,23.5
2018-07-02T19:19:30.725Z,24
2018-07-02T19:24:28.393Z,23.9
2018-07-02T19:29:26.084Z,23.9
2018-07-02T19:34:23.950Z,23.8
2018-07-02T19:39:21.792Z,23.3
2018-07-02T19:44:20.334Z,23.7
2018-07-02T19:49:18.003Z,23.7
2018-07-02T19:54:16.301Z,23.6
2018-07-02T19:59:14.291Z,23.6
2018-07-02T20:04:12.291Z,23.6
2018-07-02T20:09:11.095Z,23.5
2018-07-02T20:14:09.181Z,23.5
2018-07-02T20:19:07.213Z,23.5
2018-07-02T20:24:04.992Z,23
2018-07-02T20:29:02.662Z,23.4
2018-07-02T20:34:01.726Z,23.4
2018-07-02T20:38:59.291Z,23.3
2018-07-02T20:43:57.312Z,23.1
2018-07-02T20:48:55.285Z,23.2
2018-07-02T20:53:53.921Z,23.2
2018-07-02T20:58:52.117Z,23.1
2018-07-02T21:03:50.314Z,22.5
2018-07-02T21:08:48.310Z,22.4
2018-07-02T21:13:44.974Z,22.8
2018-07-02T21:18:42.258Z,22.8
2018-07-02T21:23:39.793Z,22.7
2018-07-02T21:28:37.683Z,22.5
2018-07-02T21:33:35.305Z,22.6
2018-07-02T21:38:32.787Z,22.5
2018-07-02T21:43:30.359Z,22.5
2018-07-02T21:48:28.406Z,22
2018-07-02T21:53:26.695Z,22.4
2018-07-02T21:58:24.513Z,22.4
2018-07-02T22:03:22.186Z,21.8
2018-07-02T22:08:20.097Z,21.9
2018-07-02T22:13:17.019Z,22.2
2018-07-02T22:18:14.568Z,22.2
2018-07-02T22:23:12.774Z,22.2
2018-07-02T22:28:10.683Z,21.6
2018-07-02T22:33:09.435Z,22.1
2018-07-02T22:38:07.730Z,22.1
2018-07-02T22:43:07.035Z,21.6
2018-07-02T22:48:05.178Z,21.6
2018-07-02T22:53:02.790Z,22.1
2018-07-02T22:58:00.431Z,22.1
2018-07-02T23:02:58.068Z,22
2018-07-02T23:07:55.951Z,22
2018-07-02T23:12:53.878Z,21.5
2018-07-02T23:17:52.135Z,22
2018-07-02T23:22:49.659Z,21.4
2018-07-02T23:27:47.196Z,21.4
2018-07-02T23:32:44.854Z,21.9
2018-07-02T23:37:42.276Z,21.8
2018-07-02T23:42:39.776Z,21.8
2018-07-02T23:47:37.602Z,21.8
2018-07-02T23:52:36.125Z,21
2018-07-02T23:57:34.602Z,21.7
